sensor_id;sensor_type;location;lat;lon;timestamp;P1;durP1;ratioP1;P2;durP2;ratioP2
39698;SDS011;25372;50.582;12.250;2024-03-08T00:01:12;10.57;;;4.97;;
39698;SDS011;25372;50.582;12.250;2024-03-08T00:11:35;13.27;;;6.50;;
39698;SDS011;25372;50.582;12.250;2024-03-08T00:21:56;25.08;;;7.82;;
39698;SDS011;25372;50.582;12.250;2024-03-08T00:32:18;16.23;;;6.95;;
39698;SDS011;25372;50.582;12.250;2024-03-08T00:42:39;25.15;;;7.88;;
39698;SDS011;25372;50.582;12.250;2024-03-08T00:53:02;10.82;;;7.30;;
39698;SDS011;25372;50.582;12.250;2024-03-08T01:03:24;15.03;;;8.37;;
39698;SDS011;25372;50.582;12.250;2024-03-08T01:13:46;17.42;;;7.82;;
39698;SDS011;25372;50.582;12.250;2024-03-08T01:24:09;22.92;;;6.90;;
39698;SDS011;25372;50.582;12.250;2024-03-08T01:34:31;16.85;;;7.40;;
39698;SDS011;25372;50.582;12.250;2024-03-08T01:44:52;17.27;;;7.07;;
39698;SDS011;25372;50.582;12.250;2024-03-08T01:55:15;28.95;;;7.68;;
39698;SDS011;25372;50.582;12.250;2024-03-08T02:05:38;16.13;;;8.10;;
39698;SDS011;25372;50.582;12.250;2024-03-08T02:16:03;22.73;;;8.85;;
39698;SDS011;25372;50.582;12.250;2024-03-08T02:26:28;16.00;;;8.57;;
39698;SDS011;25372;50.582;12.250;2024-03-08T02:36:49;27.83;;;10.88;;
39698;SDS011;25372;50.582;12.250;2024-03-08T02:47:12;23.38;;;8.38;;
39698;SDS011;25372;50.582;12.250;2024-03-08T02:57:33;15.63;;;7.93;;
39698;SDS011;25372;50.582;12.250;2024-03-08T03:07:56;13.85;;;6.65;;
39698;SDS011;25372;50.582;12.250;2024-03-08T03:18:17;21.33;;;10.80;;
39698;SDS011;25372;50.582;12.250;2024-03-08T03:28:42;14.30;;;7.93;;
39698;SDS011;25372;50.582;12.250;2024-03-08T03:39:03;23.67;;;7.53;;
39698;SDS011;25372;50.582;12.250;2024-03-08T03:49:31;25.15;;;9.50;;
39698;SDS011;25372;50.582;12.250;2024-03-08T03:59:52;27.80;;;10.03;;
39698;SDS011;25372;50.582;12.250;2024-03-08T04:10:15;17.23;;;9.88;;
39698;SDS011;25372;50.582;12.250;2024-03-08T04:20:36;17.67;;;8.93;;
39698;SDS011;25372;50.582;12.250;2024-03-08T04:30:58;29.45;;;11.63;;
39698;SDS011;25372;50.582;12.250;2024-03-08T04:41:20;17.27;;;7.82;;
39698;SDS011;25372;50.582;12.250;2024-03-08T04:51:44;15.53;;;8.13;;
39698;SDS011;25372;50.582;12.250;2024-03-08T05:02:05;17.75;;;9.38;;
39698;SDS011;25372;50.582;12.250;2024-03-08T05:12:29;25.03;;;9.40;;
39698;SDS011;25372;50.582;12.250;2024-03-08T05:22:51;30.15;;;8.77;;
39698;SDS011;25372;50.582;12.250;2024-03-08T05:33:13;12.98;;;7.43;;
39698;SDS011;25372;50.582;12.250;2024-03-08T05:43:34;17.60;;;8.17;;
39698;SDS011;25372;50.582;12.250;2024-03-08T05:53:57;14.52;;;10.23;;
39698;SDS011;25372;50.582;12.250;2024-03-08T06:04:18;17.05;;;8.60;;
39698;SDS011;25372;50.582;12.250;2024-03-08T06:14:41;19.05;;;9.90;;
39698;SDS011;25372;50.582;12.250;2024-03-08T06:25:03;22.02;;;10.02;;
39698;SDS011;25372;50.582;12.250;2024-03-08T06:35:26;16.83;;;9.18;;
39698;SDS011;25372;50.582;12.250;2024-03-08T06:45:47;10.20;;;5.80;;
39698;SDS011;25372;50.582;12.250;2024-03-08T06:56:10;21.80;;;11.35;;
39698;SDS011;25372;50.582;12.250;2024-03-08T07:06:31;27.27;;;11.87;;
39698;SDS011;25372;50.582;12.250;2024-03-08T07:16:55;40.65;;;14.43;;
39698;SDS011;25372;50.582;12.250;2024-03-08T07:27:16;29.55;;;11.10;;
39698;SDS011;25372;50.582;12.250;2024-03-08T07:37:39;29.67;;;11.02;;
39698;SDS011;25372;50.582;12.250;2024-03-08T07:48:00;33.20;;;9.02;;
39698;SDS011;25372;50.582;12.250;2024-03-08T07:58:24;22.17;;;9.18;;
39698;SDS011;25372;50.582;12.250;2024-03-08T08:08:44;27.35;;;12.07;;
39698;SDS011;25372;50.582;12.250;2024-03-08T08:19:07;29.63;;;8.38;;
39698;SDS011;25372;50.582;12.250;2024-03-08T08:29:28;25.23;;;9.03;;
39698;SDS011;25372;50.582;12.250;2024-03-08T08:39:51;18.33;;;8.52;;
39698;SDS011;25372;50.582;12.250;2024-03-08T08:50:12;21.92;;;9.35;;
39698;SDS011;25372;50.582;12.250;2024-03-08T09:00:35;25.73;;;9.73;;
39698;SDS011;25372;50.582;12.250;2024-03-08T09:10:56;20.45;;;8.52;;
39698;SDS011;25372;50.582;12.250;2024-03-08T09:21:20;23.45;;;9.27;;
39698;SDS011;25372;50.582;12.250;2024-03-08T09:31:41;25.70;;;9.15;;
39698;SDS011;25372;50.582;12.250;2024-03-08T09:42:04;16.17;;;7.88;;
39698;SDS011;25372;50.582;12.250;2024-03-08T09:52:26;18.10;;;8.57;;
39698;SDS011;25372;50.582;12.250;2024-03-08T10:02:51;19.05;;;7.60;;
39698;SDS011;25372;50.582;12.250;2024-03-08T10:13:13;20.58;;;8.10;;
39698;SDS011;25372;50.582;12.250;2024-03-08T10:23:37;21.58;;;9.20;;
39698;SDS011;25372;50.582;12.250;2024-03-08T10:33:59;16.58;;;6.80;;
39698;SDS011;25372;50.582;12.250;2024-03-08T10:44:26;18.08;;;8.23;;
39698;SDS011;25372;50.582;12.250;2024-03-08T10:55:01;16.77;;;8.45;;
39698;SDS011;25372;50.582;12.250;2024-03-08T11:05:35;20.15;;;7.03;;
39698;SDS011;25372;50.582;12.250;2024-03-08T11:15:59;25.92;;;6.88;;
39698;SDS011;25372;50.582;12.250;2024-03-08T11:26:23;16.50;;;6.72;;
39698;SDS011;25372;50.582;12.250;2024-03-08T11:36:47;14.43;;;6.67;;
39698;SDS011;25372;50.582;12.250;2024-03-08T11:47:10;13.77;;;7.50;;
39698;SDS011;25372;50.582;12.250;2024-03-08T11:57:31;14.77;;;7.15;;
39698;SDS011;25372;50.582;12.250;2024-03-08T12:07:57;14.80;;;6.13;;
39698;SDS011;25372;50.582;12.250;2024-03-08T12:18:18;15.85;;;5.93;;
39698;SDS011;25372;50.582;12.250;2024-03-08T12:28:40;14.95;;;6.30;;
39698;SDS011;25372;50.582;12.250;2024-03-08T12:39:04;11.55;;;5.38;;
39698;SDS011;25372;50.582;12.250;2024-03-08T12:49:33;11.40;;;5.45;;
39698;SDS011;25372;50.582;12.250;2024-03-08T12:59:54;8.25;;;5.18;;
39698;SDS011;25372;50.582;12.250;2024-03-08T13:10:16;12.88;;;5.03;;
39698;SDS011;25372;50.582;12.250;2024-03-08T13:20:40;12.73;;;5.30;;
39698;SDS011;25372;50.582;12.250;2024-03-08T13:31:05;15.25;;;5.57;;
39698;SDS011;25372;50.582;12.250;2024-03-08T13:41:29;9.98;;;4.30;;
39698;SDS011;25372;50.582;12.250;2024-03-08T13:51:52;8.48;;;4.07;;
39698;SDS011;25372;50.582;12.250;2024-03-08T14:02:14;12.48;;;5.40;;
39698;SDS011;25372;50.582;12.250;2024-03-08T14:12:38;5.93;;;3.60;;
39698;SDS011;25372;50.582;12.250;2024-03-08T14:22:59;6.60;;;2.80;;
39698;SDS011;25372;50.582;12.250;2024-03-08T14:33:21;8.73;;;3.92;;
39698;SDS011;25372;50.582;12.250;2024-03-08T14:43:44;6.50;;;3.00;;
39698;SDS011;25372;50.582;12.250;2024-03-08T14:54:08;7.32;;;2.95;;
39698;SDS011;25372;50.582;12.250;2024-03-08T15:04:30;5.97;;;3.63;;
39698;SDS011;25372;50.582;12.250;2024-03-08T15:14:56;5.93;;;2.97;;
39698;SDS011;25372;50.582;12.250;2024-03-08T15:25:18;7.30;;;2.58;;
39698;SDS011;25372;50.582;12.250;2024-03-08T15:35:46;6.28;;;3.08;;
39698;SDS011;25372;50.582;12.250;2024-03-08T15:46:10;7.05;;;4.07;;
39698;SDS011;25372;50.582;12.250;2024-03-08T15:56:32;10.25;;;4.53;;
39698;SDS011;25372;50.582;12.250;2024-03-08T16:06:53;10.57;;;5.10;;
39698;SDS011;25372;50.582;12.250;2024-03-08T16:17:16;6.13;;;3.50;;
39698;SDS011;25372;50.582;12.250;2024-03-08T16:27:38;7.90;;;4.10;;
39698;SDS011;25372;50.582;12.250;2024-03-08T16:38:01;9.55;;;4.70;;
39698;SDS011;25372;50.582;12.250;2024-03-08T16:48:22;11.10;;;4.80;;
39698;SDS011;25372;50.582;12.250;2024-03-08T16:58:44;16.70;;;6.43;;
39698;SDS011;25372;50.582;12.250;2024-03-08T17:09:06;11.55;;;3.97;;
39698;SDS011;25372;50.582;12.250;2024-03-08T17:19:32;12.20;;;6.20;;
39698;SDS011;25372;50.582;12.250;2024-03-08T17:29:54;14.57;;;5.40;;
39698;SDS011;25372;50.582;12.250;2024-03-08T17:40:16;9.23;;;4.47;;
39698;SDS011;25372;50.582;12.250;2024-03-08T17:50:41;11.75;;;5.28;;
39698;SDS011;25372;50.582;12.250;2024-03-08T18:01:04;13.48;;;5.28;;
39698;SDS011;25372;50.582;12.250;2024-03-08T18:11:29;15.10;;;4.70;;
39698;SDS011;25372;50.582;12.250;2024-03-08T18:21:52;11.02;;;5.95;;
39698;SDS011;25372;50.582;12.250;2024-03-08T18:32:13;11.43;;;5.20;;
39698;SDS011;25372;50.582;12.250;2024-03-08T18:42:35;9.20;;;4.95;;
39698;SDS011;25372;50.582;12.250;2024-03-08T18:52:57;8.80;;;4.00;;
39698;SDS011;25372;50.582;12.250;2024-03-08T19:03:20;20.20;;;9.63;;
39698;SDS011;25372;50.582;12.250;2024-03-08T19:13:43;28.57;;;9.47;;
39698;SDS011;25372;50.582;12.250;2024-03-08T19:24:05;36.60;;;13.38;;
39698;SDS011;25372;50.582;12.250;2024-03-08T19:34:27;25.63;;;10.37;;
39698;SDS011;25372;50.582;12.250;2024-03-08T19:44:50;16.20;;;7.07;;
39698;SDS011;25372;50.582;12.250;2024-03-08T19:55:11;11.02;;;5.03;;
39698;SDS011;25372;50.582;12.250;2024-03-08T20:05:35;13.13;;;5.35;;
39698;SDS011;25372;50.582;12.250;2024-03-08T20:15:57;11.25;;;5.60;;
39698;SDS011;25372;50.582;12.250;2024-03-08T20:26:19;11.40;;;5.10;;
39698;SDS011;25372;50.582;12.250;2024-03-08T20:36:42;10.32;;;3.88;;
39698;SDS011;25372;50.582;12.250;2024-03-08T20:47:04;7.82;;;4.20;;
39698;SDS011;25372;50.582;12.250;2024-03-08T20:57:26;16.88;;;5.57;;
39698;SDS011;25372;50.582;12.250;2024-03-08T21:07:48;11.02;;;5.00;;
39698;SDS011;25372;50.582;12.250;2024-03-08T21:18:09;11.52;;;4.40;;
39698;SDS011;25372;50.582;12.250;2024-03-08T21:28:33;7.55;;;4.88;;
39698;SDS011;25372;50.582;12.250;2024-03-08T21:38:55;20.25;;;6.80;;
39698;SDS011;25372;50.582;12.250;2024-03-08T21:49:17;8.13;;;4.28;;
39698;SDS011;25372;50.582;12.250;2024-03-08T21:59:38;17.83;;;6.50;;
39698;SDS011;25372;50.582;12.250;2024-03-08T22:10:03;9.68;;;5.13;;
39698;SDS011;25372;50.582;12.250;2024-03-08T22:20:24;12.35;;;5.00;;
39698;SDS011;25372;50.582;12.250;2024-03-08T22:30:52;16.10;;;5.72;;
39698;SDS011;25372;50.582;12.250;2024-03-08T22:41:13;17.13;;;6.80;;
39698;SDS011;25372;50.582;12.250;2024-03-08T22:51:36;11.95;;;5.07;;
39698;SDS011;25372;50.582;12.250;2024-03-08T23:01:57;14.65;;;6.28;;
39698;SDS011;25372;50.582;12.250;2024-03-08T23:12:19;10.95;;;4.30;;
39698;SDS011;25372;50.582;12.250;2024-03-08T23:22:40;12.80;;;6.00;;
39698;SDS011;25372;50.582;12.250;2024-03-08T23:33:07;19.42;;;5.90;;
39698;SDS011;25372;50.582;12.250;2024-03-08T23:43:31;19.27;;;4.95;;
39698;SDS011;25372;50.582;12.250;2024-03-08T23:53:56;8.47;;;4.10;;
